createdAt,value
2023-05-06T00:03:00.296Z,6.50
2023-05-06T00:06:07.000Z,6.75
2023-05-06T00:09:10.544Z,7.18
2023-05-06T00:12:13.432Z,6.75
2023-05-06T00:15:16.289Z,7.28
2023-05-06T00:18:19.065Z,6.22
2023-05-06T00:21:23.182Z,5.75
2023-05-06T00:24:26.034Z,6.13
2023-05-06T00:27:28.911Z,6.93
2023-05-06T00:30:31.729Z,6.70
2023-05-06T00:33:34.584Z,6.40
2023-05-06T00:36:38.988Z,6.30
2023-05-06T00:39:41.793Z,6.22
2023-05-06T00:42:44.599Z,6.32
2023-05-06T00:45:47.429Z,5.82
2023-05-06T00:48:50.646Z,6.00
2023-05-06T00:51:56.204Z,5.43
2023-05-06T00:54:59.409Z,5.65
2023-05-06T00:58:02.250Z,5.75
2023-05-06T01:01:05.333Z,6.07
2023-05-06T01:04:08.722Z,5.85
2023-05-06T01:07:25.623Z,5.22
2023-05-06T01:10:36.353Z,5.65
2023-05-06T01:13:46.299Z,5.15
2023-05-06T01:16:54.744Z,5.00
2023-05-06T01:20:01.711Z,5.20
2023-05-06T01:23:09.696Z,5.22
2023-05-06T01:26:12.451Z,5.40
2023-05-06T01:29:16.207Z,4.95
2023-05-06T01:32:33.970Z,5.10
2023-05-06T01:35:47.456Z,4.95
2023-05-06T01:38:58.944Z,5.03
2023-05-06T01:42:03.672Z,4.32
2023-05-06T01:45:09.144Z,4.38
2023-05-06T01:48:12.733Z,4.82
2023-05-06T01:51:15.501Z,4.60
2023-05-06T01:54:19.867Z,4.43
2023-05-06T01:57:22.661Z,4.10
2023-05-06T02:00:26.310Z,4.35
2023-05-06T02:03:29.192Z,4.22
2023-05-06T02:06:32.790Z,4.32
2023-05-06T02:09:36.993Z,4.40
2023-05-06T02:12:40.649Z,4.10
2023-05-06T02:15:43.576Z,3.90
2023-05-06T02:18:51.570Z,3.83
2023-05-06T02:21:54.382Z,4.00
2023-05-06T02:24:58.529Z,3.90
2023-05-06T02:28:01.323Z,4.32
2023-05-06T02:31:04.274Z,3.80
2023-05-06T02:34:07.029Z,3.63
2023-05-06T02:37:09.777Z,4.05
2023-05-06T02:40:14.444Z,4.07
2023-05-06T02:43:17.300Z,3.67
2023-05-06T02:46:20.118Z,4.00
2023-05-06T02:49:23.000Z,3.72
2023-05-06T02:52:25.815Z,4.03
2023-05-06T02:55:29.966Z,3.80
2023-05-06T02:58:32.781Z,3.78
2023-05-06T03:01:35.798Z,4.00
2023-05-06T03:04:38.735Z,3.85
2023-05-06T03:07:42.272Z,3.85
2023-05-06T03:10:46.534Z,3.55
2023-05-06T03:13:51.306Z,3.20
2023-05-06T03:16:54.441Z,3.38
2023-05-06T03:19:58.550Z,3.65
2023-05-06T03:23:01.489Z,3.45
2023-05-06T03:26:06.673Z,3.47
2023-05-06T03:29:09.779Z,3.38
2023-05-06T03:32:12.656Z,3.65
2023-05-06T03:35:19.567Z,3.20
2023-05-06T03:38:26.875Z,3.45
2023-05-06T03:41:37.197Z,3.47
2023-05-06T03:44:40.023Z,3.42
2023-05-06T03:47:43.929Z,3.10
2023-05-06T03:50:48.054Z,3.42
2023-05-06T03:53:54.094Z,3.42
2023-05-06T03:56:59.192Z,3.53
2023-05-06T04:00:02.228Z,3.40
2023-05-06T04:03:07.857Z,3.30
2023-05-06T04:06:17.876Z,3.30
2023-05-06T04:09:20.753Z,3.05
2023-05-06T04:12:26.016Z,3.30
2023-05-06T04:15:32.010Z,2.92
2023-05-06T04:18:35.605Z,2.88
2023-05-06T04:21:42.793Z,3.10
2023-05-06T04:24:48.096Z,2.90
2023-05-06T04:27:53.522Z,2.55
2023-05-06T04:30:56.749Z,3.13
2023-05-06T04:34:06.037Z,3.10
2023-05-06T04:37:09.330Z,2.70
2023-05-06T04:40:18.748Z,3.15
2023-05-06T04:43:26.452Z,3.00
2023-05-06T04:46:34.393Z,2.97
2023-05-06T04:49:38.496Z,2.92
2023-05-06T04:52:42.513Z,2.75
2023-05-06T04:55:45.956Z,2.90
2023-05-06T04:58:50.888Z,2.83
2023-05-06T05:01:54.205Z,3.10
2023-05-06T05:04:57.060Z,3.10
2023-05-06T05:08:00.233Z,2.83
2023-05-06T05:11:07.399Z,2.78
2023-05-06T05:14:12.402Z,2.85
2023-05-06T05:17:15.861Z,2.63
2023-05-06T05:20:19.300Z,2.88
2023-05-06T05:23:22.108Z,2.67
2023-05-06T05:26:24.899Z,3.00
2023-05-06T05:29:30.950Z,3.03
2023-05-06T05:32:35.752Z,2.78
2023-05-06T05:35:39.585Z,2.83
2023-05-06T05:38:42.520Z,2.58
2023-05-06T05:41:45.878Z,2.58
2023-05-06T05:44:50.656Z,2.47
2023-05-06T05:47:54.079Z,2.88
2023-05-06T05:50:58.305Z,2.70
2023-05-06T05:54:02.156Z,2.80
2023-05-06T05:57:05.134Z,2.45
2023-05-06T06:00:13.297Z,2.60
2023-05-06T06:03:22.149Z,2.65
2023-05-06T06:06:25.383Z,2.63
2023-05-06T06:09:28.862Z,2.33
2023-05-06T06:12:32.226Z,2.58
2023-05-06T06:15:37.527Z,2.83
2023-05-06T06:18:40.585Z,2.60
2023-05-06T06:21:43.449Z,2.50
2023-05-06T06:24:46.341Z,2.58
2023-05-06T06:27:49.117Z,2.60
2023-05-06T06:30:53.321Z,2.47
2023-05-06T06:33:56.268Z,2.10
2023-05-06T06:36:59.664Z,2.42
2023-05-06T06:40:02.450Z,2.20
2023-05-06T06:43:05.321Z,2.50
2023-05-06T06:46:27.420Z,2.58
2023-05-06T06:49:32.500Z,2.65
2023-05-06T06:52:35.322Z,2.45
2023-05-06T06:55:38.076Z,2.40
2023-05-06T06:58:41.109Z,2.42
2023-05-06T07:01:45.443Z,2.20
2023-05-06T07:04:48.285Z,2.70
2023-05-06T07:07:51.008Z,2.40
2023-05-06T07:10:54.014Z,2.38
2023-05-06T07:13:56.717Z,2.35
2023-05-06T07:17:01.512Z,2.45
2023-05-06T07:20:04.809Z,2.25
2023-05-06T07:23:07.534Z,2.17
2023-05-06T07:26:10.791Z,2.47
2023-05-06T07:29:13.571Z,2.60
2023-05-06T07:32:17.834Z,2.42
2023-05-06T07:35:20.683Z,2.58
2023-05-06T07:38:24.973Z,2.30
2023-05-06T07:41:27.710Z,2.33
2023-05-06T07:44:30.500Z,2.38
2023-05-06T07:47:36.308Z,2.50
2023-05-06T07:50:39.157Z,2.65
2023-05-06T07:53:41.957Z,2.20
2023-05-06T07:56:45.440Z,2.83
2023-05-06T07:59:50.351Z,2.63
2023-05-06T08:02:54.509Z,2.72
2023-05-06T08:05:57.462Z,2.22
2023-05-06T08:09:00.452Z,2.60
2023-05-06T08:12:03.270Z,2.25
2023-05-06T08:15:07.017Z,2.20
2023-05-06T08:18:21.774Z,2.47
2023-05-06T08:21:25.844Z,2.42
2023-05-06T08:24:29.670Z,1.98
2023-05-06T08:27:32.540Z,2.33
2023-05-06T08:30:35.420Z,2.30
2023-05-06T08:33:39.846Z,2.33
2023-05-06T08:36:42.644Z,2.00
2023-05-06T08:39:46.083Z,2.40
2023-05-06T08:42:50.057Z,2.45
2023-05-06T08:45:52.893Z,2.13
2023-05-06T08:48:57.198Z,2.20
2023-05-06T08:52:00.539Z,2.30
2023-05-06T08:55:05.300Z,2.05
2023-05-06T08:58:09.368Z,2.28
2023-05-06T09:01:12.230Z,2.10
2023-05-06T09:04:18.304Z,1.92
2023-05-06T09:07:22.179Z,2.60
2023-05-06T09:10:25.429Z,1.98
2023-05-06T09:13:28.266Z,2.05
2023-05-06T09:16:31.926Z,2.10
2023-05-06T09:19:39.194Z,2.28
2023-05-06T09:22:42.687Z,2.42
2023-05-06T09:25:46.959Z,2.08
2023-05-06T09:28:49.739Z,2.10
2023-05-06T09:31:55.073Z,2.25
2023-05-06T09:34:59.447Z,2.30
2023-05-06T09:38:02.223Z,1.80
2023-05-06T09:41:06.537Z,2.08
2023-05-06T09:44:09.584Z,2.53
2023-05-06T09:47:12.466Z,2.22
2023-05-06T09:50:17.160Z,2.10
2023-05-06T09:53:21.529Z,2.00
2023-05-06T09:56:25.968Z,2.10
2023-05-06T09:59:30.592Z,1.77
2023-05-06T10:02:33.932Z,1.95
2023-05-06T10:05:38.952Z,2.15
2023-05-06T10:08:42.869Z,2.17
2023-05-06T10:11:47.585Z,2.20
2023-05-06T10:14:50.457Z,2.47
2023-05-06T10:17:54.144Z,2.00
2023-05-06T10:21:00.638Z,2.00
2023-05-06T10:24:08.988Z,1.90
2023-05-06T10:27:13.545Z,1.80
2023-05-06T10:30:17.783Z,1.98
2023-05-06T10:33:23.303Z,1.77
2023-05-06T10:36:29.530Z,1.90
2023-05-06T10:39:33.098Z,1.70
2023-05-06T10:42:36.009Z,2.00
2023-05-06T10:46:00.272Z,2.10
2023-05-06T10:49:20.373Z,2.30
2023-05-06T10:52:44.968Z,1.88
2023-05-06T10:55:47.792Z,1.83
2023-05-06T10:58:50.652Z,1.92
2023-05-06T11:01:57.334Z,1.85
2023-05-06T11:05:02.185Z,1.90
2023-05-06T11:08:12.468Z,2.00
2023-05-06T11:11:52.343Z,2.10
2023-05-06T11:14:55.168Z,1.88
2023-05-06T11:17:58.163Z,1.95
2023-05-06T11:21:34.612Z,2.10
2023-05-06T11:24:42.059Z,1.90
2023-05-06T11:27:44.938Z,1.77
2023-05-06T11:30:56.019Z,2.05
2023-05-06T11:34:02.433Z,1.52
2023-05-06T11:37:06.797Z,1.92
2023-05-06T11:40:16.616Z,1.90
2023-05-06T11:43:19.589Z,1.58
2023-05-06T11:46:23.566Z,1.52
2023-05-06T11:49:27.407Z,2.03
2023-05-06T11:52:31.384Z,1.80
2023-05-06T11:55:36.512Z,1.45
2023-05-06T11:58:39.264Z,1.80
2023-05-06T12:01:43.657Z,2.00
2023-05-06T12:04:49.987Z,1.88
2023-05-06T12:07:53.059Z,1.70
2023-05-06T12:11:00.737Z,1.55
2023-05-06T12:14:05.368Z,1.70
2023-05-06T12:17:08.384Z,1.80
2023-05-06T12:20:12.947Z,1.65
2023-05-06T12:23:17.148Z,1.80
2023-05-06T12:26:22.199Z,1.90
2023-05-06T12:29:24.940Z,1.80
2023-05-06T12:32:27.861Z,2.70
2023-05-06T12:35:32.189Z,2.42
2023-05-06T12:38:34.945Z,1.92
2023-05-06T12:41:41.034Z,1.85
2023-05-06T12:44:43.801Z,1.80
2023-05-06T12:47:53.867Z,1.80
2023-05-06T12:50:56.715Z,2.17
2023-05-06T12:53:59.446Z,2.72
2023-05-06T12:57:03.868Z,1.83
2023-05-06T13:00:10.006Z,2.25
2023-05-06T13:03:14.360Z,2.05
2023-05-06T13:06:17.147Z,2.45
2023-05-06T13:09:19.913Z,2.25
2023-05-06T13:12:24.067Z,2.08
2023-05-06T13:15:27.019Z,2.13
2023-05-06T13:18:30.513Z,2.20
2023-05-06T13:21:33.292Z,1.90
2023-05-06T13:24:36.463Z,1.90
2023-05-06T13:27:40.591Z,2.00
2023-05-06T13:30:43.489Z,3.05
2023-05-06T13:33:46.232Z,2.30
2023-05-06T13:36:49.668Z,2.08
2023-05-06T13:39:52.445Z,2.10
2023-05-06T13:42:56.585Z,2.38
2023-05-06T13:45:59.415Z,1.63
2023-05-06T13:49:02.373Z,1.88
2023-05-06T13:52:08.010Z,1.98
2023-05-06T13:55:11.930Z,2.10
2023-05-06T13:58:17.082Z,2.10
2023-05-06T14:01:20.006Z,2.13
2023-05-06T14:04:23.289Z,1.90
2023-05-06T14:07:26.067Z,1.80
2023-05-06T14:10:29.100Z,2.05
2023-05-06T14:13:34.601Z,1.95
2023-05-06T14:16:37.550Z,1.92
2023-05-06T14:19:40.462Z,1.80
2023-05-06T14:22:43.355Z,2.40
2023-05-06T14:25:46.243Z,2.03
2023-05-06T14:28:50.338Z,1.80
2023-05-06T14:31:53.731Z,1.80
2023-05-06T14:34:56.541Z,2.00
2023-05-06T14:37:59.342Z,2.15
2023-05-06T14:41:02.067Z,1.90
2023-05-06T14:44:06.579Z,1.70
2023-05-06T14:47:09.403Z,1.88
2023-05-06T14:50:13.352Z,1.95
2023-05-06T14:53:16.216Z,1.65
2023-05-06T14:56:19.036Z,2.03
2023-05-06T14:59:23.151Z,1.55
2023-05-06T15:02:26.447Z,2.03
2023-05-06T15:05:29.277Z,1.67
2023-05-06T15:08:32.024Z,1.90
2023-05-06T15:11:34.829Z,2.10
2023-05-06T15:14:39.258Z,1.80
2023-05-06T15:17:42.433Z,1.70
2023-05-06T15:20:45.243Z,1.50
2023-05-06T15:23:48.269Z,2.17
2023-05-06T15:26:50.988Z,1.67
2023-05-06T15:29:55.190Z,1.90
2023-05-06T15:32:58.003Z,2.35
2023-05-06T15:36:01.024Z,2.28
2023-05-06T15:39:04.260Z,2.25
2023-05-06T15:42:07.246Z,3.08
2023-05-06T15:45:12.501Z,1.88
2023-05-06T15:48:15.283Z,2.22
2023-05-06T15:51:18.367Z,2.40
2023-05-06T15:54:21.111Z,2.22
2023-05-06T15:57:24.263Z,2.33
2023-05-06T16:00:28.541Z,1.90
2023-05-06T16:03:31.829Z,2.03
2023-05-06T16:06:35.508Z,2.13
2023-05-06T16:09:38.661Z,2.03
2023-05-06T16:12:41.472Z,2.03
2023-05-06T16:15:45.654Z,1.85
2023-05-06T16:18:48.426Z,2.75
2023-05-06T16:21:51.208Z,2.08
2023-05-06T16:24:53.971Z,2.30
2023-05-06T16:27:56.983Z,2.35
2023-05-06T16:31:02.899Z,1.75
2023-05-06T16:34:06.160Z,2.10
2023-05-06T16:37:09.721Z,2.15
2023-05-06T16:40:14.508Z,2.42
2023-05-06T16:43:17.389Z,2.38
2023-05-06T16:46:23.962Z,2.00
2023-05-06T16:49:27.984Z,1.90
2023-05-06T16:52:31.077Z,2.30
2023-05-06T16:55:33.874Z,2.22
2023-05-06T16:58:37.201Z,2.58
2023-05-06T17:01:41.285Z,2.13
2023-05-06T17:04:44.068Z,2.15
2023-05-06T17:07:48.386Z,2.13
2023-05-06T17:10:51.262Z,1.90
2023-05-06T17:13:54.789Z,1.98
2023-05-06T17:17:02.331Z,2.05
2023-05-06T17:20:06.267Z,2.33
2023-05-06T17:23:09.100Z,2.08
2023-05-06T17:26:12.032Z,3.03
2023-05-06T17:29:15.122Z,2.10
2023-05-06T17:32:19.885Z,2.00
2023-05-06T17:35:22.758Z,1.90
2023-05-06T17:38:25.598Z,1.98
2023-05-06T17:41:28.898Z,2.28
2023-05-06T17:44:32.938Z,2.03
2023-05-06T17:47:37.182Z,1.92
2023-05-06T17:50:39.935Z,2.42
2023-05-06T17:53:42.828Z,2.10
2023-05-06T17:56:50.298Z,2.03
2023-05-06T17:59:53.163Z,2.20
2023-05-06T18:02:57.810Z,2.15
2023-05-06T18:06:00.669Z,2.28
2023-05-06T18:09:03.523Z,2.05
2023-05-06T18:12:06.890Z,2.10
2023-05-06T18:15:11.327Z,1.92
2023-05-06T18:18:15.980Z,2.40
2023-05-06T18:21:18.834Z,2.53
2023-05-06T18:24:21.918Z,2.17
2023-05-06T18:27:25.077Z,2.10
2023-05-06T18:30:27.853Z,2.53
2023-05-06T18:33:31.952Z,2.20
2023-05-06T18:36:35.527Z,2.28
2023-05-06T18:39:41.692Z,1.90
2023-05-06T18:42:44.437Z,1.90
2023-05-06T18:45:47.367Z,2.00
2023-05-06T18:48:51.570Z,2.20
2023-05-06T18:51:54.869Z,2.40
2023-05-06T18:54:57.674Z,2.10
2023-05-06T18:58:04.747Z,2.25
2023-05-06T19:01:08.520Z,2.75
2023-05-06T19:04:12.952Z,1.63
2023-05-06T19:07:16.968Z,2.00
2023-05-06T19:10:19.972Z,2.10
2023-05-06T19:13:22.741Z,2.25
2023-05-06T19:16:25.494Z,2.58
2023-05-06T19:19:31.287Z,2.00
2023-05-06T19:22:34.108Z,2.50
2023-05-06T19:25:38.004Z,3.03
2023-05-06T19:28:41.349Z,2.30
2023-05-06T19:31:44.068Z,3.10
2023-05-06T19:34:48.189Z,3.10
2023-05-06T19:37:51.114Z,2.83
2023-05-06T19:40:54.496Z,2.50
2023-05-06T19:43:57.337Z,2.78
2023-05-06T19:47:00.164Z,2.25
2023-05-06T19:50:05.368Z,2.05
2023-05-06T19:53:08.499Z,2.67
2023-05-06T19:56:12.415Z,3.00
2023-05-06T19:59:15.248Z,2.75
2023-05-06T20:02:18.071Z,2.83
2023-05-06T20:05:22.648Z,2.92
2023-05-06T20:08:26.260Z,2.60
2023-05-06T20:11:29.039Z,2.53
2023-05-06T20:14:32.057Z,2.70
2023-05-06T20:17:35.237Z,2.40
2023-05-06T20:20:40.258Z,2.28
2023-05-06T20:23:43.044Z,2.50
2023-05-06T20:26:45.818Z,2.50
2023-05-06T20:29:49.778Z,2.40
2023-05-06T20:32:52.594Z,2.65
2023-05-06T20:35:57.820Z,2.55
2023-05-06T20:39:00.906Z,2.50
2023-05-06T20:42:03.788Z,2.50
2023-05-06T20:45:08.108Z,2.30
2023-05-06T20:48:12.937Z,2.42
2023-05-06T20:51:18.697Z,2.40
2023-05-06T20:54:21.619Z,3.03
2023-05-06T20:57:24.611Z,2.40
2023-05-06T21:00:27.353Z,2.67
2023-05-06T21:03:30.426Z,2.38
2023-05-06T21:06:34.683Z,2.42
2023-05-06T21:09:38.077Z,2.58
2023-05-06T21:13:36.673Z,2.42
2023-05-06T21:16:41.044Z,2.50
2023-05-06T21:19:43.835Z,2.50
2023-05-06T21:22:49.119Z,2.63
2023-05-06T21:25:51.989Z,2.70
2023-05-06T21:28:54.785Z,2.35
2023-05-06T21:31:57.953Z,2.20
2023-05-06T21:35:03.080Z,2.70
2023-05-06T21:38:07.606Z,2.70
2023-05-06T21:41:10.388Z,2.38
2023-05-06T21:44:13.140Z,2.20
2023-05-06T21:47:16.004Z,2.40
2023-05-06T21:50:18.793Z,2.30
2023-05-06T21:53:22.968Z,2.45
2023-05-06T21:56:25.987Z,2.45
2023-05-06T21:59:28.731Z,2.40
2023-05-06T22:02:31.529Z,2.42
2023-05-06T22:05:34.432Z,2.47
2023-05-06T22:08:38.579Z,2.30
2023-05-06T22:11:41.326Z,2.25
2023-05-06T22:14:44.052Z,2.78
2023-05-06T22:17:46.910Z,2.45
2023-05-06T22:20:50.833Z,2.30
2023-05-06T22:23:54.927Z,2.47
2023-05-06T22:26:57.646Z,2.10
2023-05-06T22:30:00.379Z,2.67
2023-05-06T22:33:03.249Z,2.00
2023-05-06T22:36:06.636Z,2.40
2023-05-06T22:39:10.820Z,2.30
2023-05-06T22:42:13.652Z,2.65
2023-05-06T22:45:16.575Z,2.35
2023-05-06T22:48:19.349Z,2.13
2023-05-06T22:51:22.272Z,2.17
2023-05-06T22:54:26.365Z,2.25
2023-05-06T22:57:29.164Z,2.10
2023-05-06T23:00:31.983Z,2.40
2023-05-06T23:03:34.895Z,2.33
2023-05-06T23:06:38.291Z,2.20
2023-05-06T23:09:42.375Z,2.70
2023-05-06T23:12:45.285Z,2.33
2023-05-06T23:15:48.112Z,2.83
2023-05-06T23:18:50.840Z,2.70
2023-05-06T23:25:32.904Z,3.65
2023-05-06T23:28:35.803Z,4.43
2023-05-06T23:31:38.753Z,3.70
2023-05-06T23:34:41.548Z,3.33
2023-05-06T23:37:44.285Z,4.03
2023-05-06T23:40:48.444Z,3.22
2023-05-06T23:43:51.196Z,3.67
2023-05-06T23:46:54.068Z,3.95
2023-05-06T23:49:57.788Z,3.40
2023-05-06T23:53:00.623Z,3.60
2023-05-06T23:56:05.161Z,3.65
2023-05-06T23:59:07.935Z,3.53
